Aeroporto :
LOGIN :

Iscrizione | Disclaimer

   EN    FR    IT 

 










Sommario :    VFR   VFR Marginale   IFR   IFR Intensivo   IFR Molto Intensivo
Visibilità : 
Base nubi : 
>= 8 km
>= 3000ft
5 / 8 km
1000 / 3000 ft
1500m / 5 km
500 / 1000 ft
800 / 1500m
200 / 500 ft
< 800m
< 200 ft
Simboli :   Temporali  Nebbia  Neve Forte  Precipitazioni Forti  Vento > 20 kt
SIGMETs :   Varie  Temporali  Ghiacco  Turbolenza  Onda orograficha  Ceneri Vulcaniche






- Altitudine del aeroporto : 122 ft
- Codice IATA : TXL


EDDT - Berlin Tegel Int.

ULTIMO METAR :
  • 172320Z 18004KT 9999 -RA BKN018 06/03 Q1016

METARs OBSOLETI :
  • 172250Z 21005KT 9999 -RA BKN023 06/03 Q1016
  • 172220Z 21004KT 170V230 9999 BKN023 05/03 Q1015 NOSIG
  • 172150Z 19004KT 160V220 9999 FEW025 BKN032 04/02 Q1015 NOSIG
  • 172120Z 19004KT 9999 FEW033 04/02 Q1015 NOSIG
  • 172050Z 19005KT 9999 SCT033 04/01 Q1015 NOSIG

TAF TAF EDDT
Valido dal 18 a 00 ore il 19 a 00 ore UTC


172300Z 1800/1824 23009KT 9999 BKN040
PROB30
TEMPO 1800/1804 BKN010



MetMap, La meteo Aeronautica in un colpo d'occhio ! - Copyright ORBIFLY Dicembre 2007 - Disclaimer

ORBIFLY MET'MAP TEAM :

Programmazione e sviluppo : Alexandra Zaïnal
Concezione : Baudouin d'Aumeries
Aiuto per la programmazione : Marc-Olivier Méhu
Supporto tecnico e logistico : Manuel Goepfert
Aiuto per la traduzione : Arnaldo La Scala

Contatto : metmap@orbifly.com




FONTI E CREDITI :

   NOAA